Diane G — DIANEG — position and weather

sailwx.info

Track history (hours):
 
Tides and Currents Weather Stations Pressure Air Temp Water Temp Dewpoint Dewpoint Depression Visibility Wind Speed Wind Dir Waves Ship Positions

Diane G

Last reported at 2015-Sep-23 14:33 UTC. Time now 2016-May-05 10:25 UTC.
Position N 33°01' W 118°25'.
Warning: this ship's position is months out of date.

Length 35 m; draft 2.5 m.

Type: Military. MMSI: 369970275.

Date/timePositionNaut miles runAvg speedWind from/ knotsBaromVisibWave heightAir tempDewpointWater temp
2015-Sep-23 14:33N 33°01' W 118°25'7 6.7
2015-Sep-23 13:33N 33°00' W 118°33'0 0.0
2015-Sep-23 12:30N 33°00' W 118°33'0 0.0
2015-Sep-23 11:33N 33°00' W 118°33'0 0.0
2015-Sep-23 10:33N 33°00' W 118°33'0 0.0
2015-Sep-23 09:18N 33°00' W 118°33'0 0.0
2015-Sep-23 08:33N 33°00' W 118°33'0 0.0
2015-Sep-23 07:33N 33°00' W 118°33'0 0.0
2015-Sep-23 06:33N 33°00' W 118°33'0 0.0
2015-Sep-23 05:33N 33°00' W 118°33'0 0.0
2015-Sep-23 04:30N 33°00' W 118°33'0 0.0
2015-Sep-23 03:33N 33°00' W 118°33'0 0.0
2015-Sep-23 02:33N 33°00' W 118°33'0 0.0
2015-Sep-23 01:33N 33°00' W 118°33'0 0.0
2015-Sep-23 00:33N 33°00' W 118°33'0 0.0
2015-Sep-22 23:30N 33°00' W 118°33'0 0.0
2015-Sep-22 22:33N 33°00' W 118°33'0 0.0
2015-Sep-22 21:29N 33°00' W 118°33'0 0.0
2015-Sep-22 20:33N 33°00' W 118°33'0 0.0
2015-Sep-22 19:29N 33°00' W 118°33'0 0.0
2015-Sep-22 18:33N 33°00' W 118°33'0 0.0
2015-Sep-22 17:33N 33°00' W 118°33'5 4.5
2015-Sep-22 16:31N 32°57' W 118°30'6 6.4
2015-Sep-22 15:34N 32°58' W 118°22'3 3.5
2015-Sep-22 14:33N 32°57' W 118°18'4 4.0
2015-Sep-22 13:33N 33°00' W 118°21'2 1.8
2015-Sep-22 12:33N 33°01' W 118°23'3 3.3
2015-Sep-22 11:33N 33°04' W 118°25'6 6.4
2015-Sep-22 10:33N 33°09' W 118°31'6 6.5
2015-Sep-22 09:34N 33°14' W 118°36'7 6.6
2015-Sep-22 08:33N 33°19' W 118°41'10 6.9
2015-Sep-22 07:10N 33°27' W 118°47'  
2015-Sep-13 20:31N 33°50' W 119°30'4 2.2
2015-Sep-13 18:31N 33°46' W 119°29'0 0.5
2015-Sep-13 17:33N 33°46' W 119°29'3 2.7
2015-Sep-13 16:33N 33°48' W 119°31'0 0.5
2015-Sep-13 15:33N 33°48' W 119°31'  
Track history (hours):
 
Tides and Currents Weather Stations Pressure Air Temp Water Temp Dewpoint Dewpoint Depression Visibility Wind Speed Wind Dir Waves Ship Positions

Diane G

Last reported at 2015-Sep-23 14:33 UTC. Time now 2016-May-05 10:25 UTC.
Position N 33°01' W 118°25'.
Warning: this ship's position is months out of date.

Length 35 m; draft 2.5 m.

Type: Military. MMSI: 369970275.

Date/timePositionNaut miles runAvg speedWind from/ knotsBaromVisibWave heightAir tempDewpointWater temp
2015-Sep-23 14:33N 33°01' W 118°25'7 6.7
2015-Sep-23 13:33N 33°00' W 118°33'0 0.0
2015-Sep-23 12:30N 33°00' W 118°33'0 0.0
2015-Sep-23 11:33N 33°00' W 118°33'0 0.0
2015-Sep-23 10:33N 33°00' W 118°33'0 0.0
2015-Sep-23 09:18N 33°00' W 118°33'0 0.0
2015-Sep-23 08:33N 33°00' W 118°33'0 0.0
2015-Sep-23 07:33N 33°00' W 118°33'0 0.0
2015-Sep-23 06:33N 33°00' W 118°33'0 0.0
2015-Sep-23 05:33N 33°00' W 118°33'0 0.0
2015-Sep-23 04:30N 33°00' W 118°33'0 0.0
2015-Sep-23 03:33N 33°00' W 118°33'0 0.0
2015-Sep-23 02:33N 33°00' W 118°33'0 0.0
2015-Sep-23 01:33N 33°00' W 118°33'0 0.0
2015-Sep-23 00:33N 33°00' W 118°33'0 0.0
2015-Sep-22 23:30N 33°00' W 118°33'0 0.0
2015-Sep-22 22:33N 33°00' W 118°33'0 0.0
2015-Sep-22 21:29N 33°00' W 118°33'0 0.0
2015-Sep-22 20:33N 33°00' W 118°33'0 0.0
2015-Sep-22 19:29N 33°00' W 118°33'0 0.0
2015-Sep-22 18:33N 33°00' W 118°33'0 0.0
2015-Sep-22 17:33N 33°00' W 118°33'5 4.5
2015-Sep-22 16:31N 32°57' W 118°30'6 6.4
2015-Sep-22 15:34N 32°58' W 118°22'3 3.5
2015-Sep-22 14:33N 32°57' W 118°18'4 4.0
2015-Sep-22 13:33N 33°00' W 118°21'2 1.8
2015-Sep-22 12:33N 33°01' W 118°23'3 3.3
2015-Sep-22 11:33N 33°04' W 118°25'6 6.4
2015-Sep-22 10:33N 33°09' W 118°31'6 6.5
2015-Sep-22 09:34N 33°14' W 118°36'7 6.6
2015-Sep-22 08:33N 33°19' W 118°41'10 6.9
2015-Sep-22 07:10N 33°27' W 118°47'  
2015-Sep-13 20:31N 33°50' W 119°30'4 2.2
2015-Sep-13 18:31N 33°46' W 119°29'0 0.5
2015-Sep-13 17:33N 33°46' W 119°29'3 2.7
2015-Sep-13 16:33N 33°48' W 119°31'0 0.5
2015-Sep-13 15:33N 33°48' W 119°31'  

Dump ship's entire track history